CheckWX is a tool to help pilots better visualize weather data.  It is not intended as a substitute for an official pre-flight weather briefing.

06:52:50 UTC

EGLF METAR
Farnborough Airport
Farnborough, United Kingdom
Current

11 hours ago

EGLF 182020Z 24003KT CAVOK 03/03 Q1016
Observed
Feb-18 @ 20:20 UTC
Wind
  • 240° at 3 KTS
Visibility
10,000+ meters
Flight Rules
VFR
Cloud Levels
  • Clear skies
Temperature
C / 37°F
Dewpoint
C / 37°F
Humidity
100%
Altimeter
30" Hg
Pressure
1015.92 hPa
Previous

11 hours ago

EGLF 181950Z 22006KT CAVOK 03/03 Q1016
Observed
Feb-18 @ 19:50 UTC
Wind
  • 220° at 6 KTS
Visibility
10,000+ meters
Flight Rules
VFR
Cloud Levels
  • Clear skies
Temperature
C / 37°F
Dewpoint
C / 37°F
Humidity
100%
Altimeter
30" Hg
Pressure
1015.92 hPa
Previous

12 hours ago

EGLF 181920Z 22006KT CAVOK 04/03 Q1016
Observed
Feb-18 @ 19:20 UTC
Wind
  • 220° at 6 KTS
Visibility
10,000+ meters
Flight Rules
VFR
Cloud Levels
  • Clear skies
Temperature
C / 39°F
Dewpoint
C / 37°F
Humidity
93%
Altimeter
30" Hg
Pressure
1015.92 hPa